sensor_id;sensor_type;location;lat;lon;timestamp;P1;durP1;ratioP1;P2;durP2;ratioP2
21099;SDS011;10708;50.824;4.408;2022-07-21T00:01:28;19.77;;;15.25;;
21099;SDS011;10708;50.824;4.408;2022-07-21T00:06:30;20.33;;;15.60;;
21099;SDS011;10708;50.824;4.408;2022-07-21T00:11:34;21.02;;;15.38;;
21099;SDS011;10708;50.824;4.408;2022-07-21T00:16:36;19.77;;;14.65;;
21099;SDS011;10708;50.824;4.408;2022-07-21T00:21:40;21.15;;;14.77;;
21099;SDS011;10708;50.824;4.408;2022-07-21T00:26:43;19.90;;;14.35;;
21099;SDS011;10708;50.824;4.408;2022-07-21T00:31:46;19.45;;;14.60;;
21099;SDS011;10708;50.824;4.408;2022-07-21T00:36:48;17.80;;;14.77;;
21099;SDS011;10708;50.824;4.408;2022-07-21T00:41:51;18.90;;;13.65;;
21099;SDS011;10708;50.824;4.408;2022-07-21T00:46:54;21.10;;;14.43;;
21099;SDS011;10708;50.824;4.408;2022-07-21T00:51:57;19.20;;;14.85;;
21099;SDS011;10708;50.824;4.408;2022-07-21T00:57:00;18.42;;;14.27;;
21099;SDS011;10708;50.824;4.408;2022-07-21T01:02:02;19.73;;;14.43;;
21099;SDS011;10708;50.824;4.408;2022-07-21T01:07:05;19.50;;;13.90;;
21099;SDS011;10708;50.824;4.408;2022-07-21T01:12:09;21.20;;;14.45;;
21099;SDS011;10708;50.824;4.408;2022-07-21T01:17:11;19.13;;;13.25;;
21099;SDS011;10708;50.824;4.408;2022-07-21T01:22:15;21.55;;;13.40;;
21099;SDS011;10708;50.824;4.408;2022-07-21T01:27:17;17.95;;;13.52;;
21099;SDS011;10708;50.824;4.408;2022-07-21T01:32:20;18.60;;;12.75;;
21099;SDS011;10708;50.824;4.408;2022-07-21T01:37:26;20.10;;;13.45;;
21099;SDS011;10708;50.824;4.408;2022-07-21T01:42:30;18.92;;;13.30;;
21099;SDS011;10708;50.824;4.408;2022-07-21T01:47:32;20.17;;;13.50;;
21099;SDS011;10708;50.824;4.408;2022-07-21T01:52:36;21.13;;;13.82;;
21099;SDS011;10708;50.824;4.408;2022-07-21T01:57:38;22.42;;;13.10;;
21099;SDS011;10708;50.824;4.408;2022-07-21T02:02:40;17.92;;;12.18;;
21099;SDS011;10708;50.824;4.408;2022-07-21T02:07:44;18.55;;;12.65;;
21099;SDS011;10708;50.824;4.408;2022-07-21T02:12:46;20.42;;;12.70;;
21099;SDS011;10708;50.824;4.408;2022-07-21T02:17:48;19.38;;;12.88;;
21099;SDS011;10708;50.824;4.408;2022-07-21T02:22:52;17.13;;;11.90;;
21099;SDS011;10708;50.824;4.408;2022-07-21T02:27:54;19.40;;;11.90;;
21099;SDS011;10708;50.824;4.408;2022-07-21T02:32:56;17.17;;;12.02;;
21099;SDS011;10708;50.824;4.408;2022-07-21T02:38:00;18.30;;;11.70;;
21099;SDS011;10708;50.824;4.408;2022-07-21T02:43:02;17.35;;;11.02;;
21099;SDS011;10708;50.824;4.408;2022-07-21T02:48:07;20.38;;;11.77;;
21099;SDS011;10708;50.824;4.408;2022-07-21T02:53:13;14.80;;;10.32;;
21099;SDS011;10708;50.824;4.408;2022-07-21T02:58:18;14.60;;;10.05;;
21099;SDS011;10708;50.824;4.408;2022-07-21T03:03:23;14.40;;;10.50;;
21099;SDS011;10708;50.824;4.408;2022-07-21T03:08:29;17.42;;;10.05;;
21099;SDS011;10708;50.824;4.408;2022-07-21T03:13:32;19.80;;;10.70;;
21099;SDS011;10708;50.824;4.408;2022-07-21T03:18:34;13.73;;;9.60;;
21099;SDS011;10708;50.824;4.408;2022-07-21T03:23:38;13.45;;;8.40;;
21099;SDS011;10708;50.824;4.408;2022-07-21T03:28:40;17.65;;;9.63;;
21099;SDS011;10708;50.824;4.408;2022-07-21T03:33:42;17.67;;;9.75;;
21099;SDS011;10708;50.824;4.408;2022-07-21T03:38:46;15.60;;;9.65;;
21099;SDS011;10708;50.824;4.408;2022-07-21T03:43:48;13.48;;;8.35;;
21099;SDS011;10708;50.824;4.408;2022-07-21T03:48:50;15.32;;;8.95;;
21099;SDS011;10708;50.824;4.408;2022-07-21T03:53:54;15.50;;;9.65;;
21099;SDS011;10708;50.824;4.408;2022-07-21T03:58:56;17.58;;;10.23;;
21099;SDS011;10708;50.824;4.408;2022-07-21T04:03:58;20.85;;;11.82;;
21099;SDS011;10708;50.824;4.408;2022-07-21T04:09:02;18.65;;;10.48;;
21099;SDS011;10708;50.824;4.408;2022-07-21T04:14:05;16.60;;;11.45;;
21099;SDS011;10708;50.824;4.408;2022-07-21T04:19:07;17.58;;;11.00;;
21099;SDS011;10708;50.824;4.408;2022-07-21T04:24:10;14.73;;;11.10;;
21099;SDS011;10708;50.824;4.408;2022-07-21T04:29:12;21.13;;;11.82;;
21099;SDS011;10708;50.824;4.408;2022-07-21T04:34:14;24.20;;;14.00;;
21099;SDS011;10708;50.824;4.408;2022-07-21T04:39:18;21.88;;;13.50;;
21099;SDS011;10708;50.824;4.408;2022-07-21T04:44:20;22.15;;;13.65;;
21099;SDS011;10708;50.824;4.408;2022-07-21T04:49:22;26.35;;;13.45;;
21099;SDS011;10708;50.824;4.408;2022-07-21T04:54:26;23.23;;;14.50;;
21099;SDS011;10708;50.824;4.408;2022-07-21T04:59:28;23.40;;;13.32;;
21099;SDS011;10708;50.824;4.408;2022-07-21T05:04:31;21.52;;;14.63;;
21099;SDS011;10708;50.824;4.408;2022-07-21T05:09:35;22.77;;;13.77;;
21099;SDS011;10708;50.824;4.408;2022-07-21T05:14:37;23.27;;;13.80;;
21099;SDS011;10708;50.824;4.408;2022-07-21T05:19:39;19.83;;;13.40;;
21099;SDS011;10708;50.824;4.408;2022-07-21T05:24:44;35.13;;;17.70;;
21099;SDS011;10708;50.824;4.408;2022-07-21T05:29:46;28.42;;;15.38;;
21099;SDS011;10708;50.824;4.408;2022-07-21T05:34:49;31.15;;;17.40;;
21099;SDS011;10708;50.824;4.408;2022-07-21T05:39:52;28.80;;;16.33;;
21099;SDS011;10708;50.824;4.408;2022-07-21T05:44:55;31.70;;;17.25;;
21099;SDS011;10708;50.824;4.408;2022-07-21T05:49:57;28.13;;;17.35;;
21099;SDS011;10708;50.824;4.408;2022-07-21T05:55:02;29.90;;;18.30;;
21099;SDS011;10708;50.824;4.408;2022-07-21T06:00:05;29.30;;;16.77;;
21099;SDS011;10708;50.824;4.408;2022-07-21T06:05:08;31.98;;;17.38;;
21099;SDS011;10708;50.824;4.408;2022-07-21T06:10:12;31.70;;;17.92;;
21099;SDS011;10708;50.824;4.408;2022-07-21T06:15:15;32.45;;;17.88;;
21099;SDS011;10708;50.824;4.408;2022-07-21T06:20:17;31.42;;;19.67;;
21099;SDS011;10708;50.824;4.408;2022-07-21T06:25:20;31.77;;;17.88;;
21099;SDS011;10708;50.824;4.408;2022-07-21T06:30:23;36.80;;;20.40;;
21099;SDS011;10708;50.824;4.408;2022-07-21T06:35:25;30.42;;;18.33;;
21099;SDS011;10708;50.824;4.408;2022-07-21T06:40:29;32.88;;;18.67;;
21099;SDS011;10708;50.824;4.408;2022-07-21T06:45:31;34.97;;;20.10;;
21099;SDS011;10708;50.824;4.408;2022-07-21T06:50:34;38.85;;;22.05;;
21099;SDS011;10708;50.824;4.408;2022-07-21T06:55:42;41.75;;;21.90;;
21099;SDS011;10708;50.824;4.408;2022-07-21T07:00:45;48.38;;;25.10;;
21099;SDS011;10708;50.824;4.408;2022-07-21T07:05:48;58.35;;;25.40;;
21099;SDS011;10708;50.824;4.408;2022-07-21T07:10:52;53.33;;;26.42;;
21099;SDS011;10708;50.824;4.408;2022-07-21T07:15:54;62.38;;;28.40;;
21099;SDS011;10708;50.824;4.408;2022-07-21T07:20:56;67.28;;;29.60;;
21099;SDS011;10708;50.824;4.408;2022-07-21T07:26:00;64.13;;;29.75;;
21099;SDS011;10708;50.824;4.408;2022-07-21T07:31:02;67.80;;;29.17;;
21099;SDS011;10708;50.824;4.408;2022-07-21T07:36:04;71.75;;;30.88;;
21099;SDS011;10708;50.824;4.408;2022-07-21T07:41:10;74.22;;;31.75;;
21099;SDS011;10708;50.824;4.408;2022-07-21T07:46:12;69.00;;;31.05;;
21099;SDS011;10708;50.824;4.408;2022-07-21T07:51:15;74.40;;;30.48;;
21099;SDS011;10708;50.824;4.408;2022-07-21T07:56:18;65.75;;;30.85;;
21099;SDS011;10708;50.824;4.408;2022-07-21T08:01:20;71.40;;;31.45;;
21099;SDS011;10708;50.824;4.408;2022-07-21T08:06:23;80.97;;;33.28;;
21099;SDS011;10708;50.824;4.408;2022-07-21T08:11:26;136.48;;;56.83;;
21099;SDS011;10708;50.824;4.408;2022-07-21T08:16:28;66.15;;;30.92;;
21099;SDS011;10708;50.824;4.408;2022-07-21T08:21:31;58.92;;;29.42;;
21099;SDS011;10708;50.824;4.408;2022-07-21T08:26:35;71.50;;;30.88;;
21099;SDS011;10708;50.824;4.408;2022-07-21T08:31:37;63.35;;;29.15;;
21099;SDS011;10708;50.824;4.408;2022-07-21T08:36:39;60.67;;;29.77;;
21099;SDS011;10708;50.824;4.408;2022-07-21T08:41:43;59.17;;;29.17;;
21099;SDS011;10708;50.824;4.408;2022-07-21T08:46:47;65.68;;;30.23;;
21099;SDS011;10708;50.824;4.408;2022-07-21T08:51:51;57.35;;;27.58;;
21099;SDS011;10708;50.824;4.408;2022-07-21T08:56:55;58.38;;;28.88;;
21099;SDS011;10708;50.824;4.408;2022-07-21T09:01:57;48.22;;;24.48;;
21099;SDS011;10708;50.824;4.408;2022-07-21T09:07:00;49.35;;;22.50;;
21099;SDS011;10708;50.824;4.408;2022-07-21T09:12:05;37.25;;;19.38;;
21099;SDS011;10708;50.824;4.408;2022-07-21T09:17:08;23.98;;;14.23;;
21099;SDS011;10708;50.824;4.408;2022-07-21T09:22:12;17.98;;;12.75;;
21099;SDS011;10708;50.824;4.408;2022-07-21T09:27:22;16.10;;;11.88;;
21099;SDS011;10708;50.824;4.408;2022-07-21T09:32:26;19.70;;;13.40;;
21099;SDS011;10708;50.824;4.408;2022-07-21T09:37:29;16.73;;;12.57;;
21099;SDS011;10708;50.824;4.408;2022-07-21T09:42:34;17.83;;;12.15;;
21099;SDS011;10708;50.824;4.408;2022-07-21T09:47:38;18.58;;;12.65;;
21099;SDS011;10708;50.824;4.408;2022-07-21T09:52:44;17.63;;;13.95;;
21099;SDS011;10708;50.824;4.408;2022-07-21T09:57:50;22.55;;;13.43;;
21099;SDS011;10708;50.824;4.408;2022-07-21T10:02:52;20.25;;;12.27;;
21099;SDS011;10708;50.824;4.408;2022-07-21T10:07:55;16.45;;;11.38;;
21099;SDS011;10708;50.824;4.408;2022-07-21T10:13:00;14.77;;;10.98;;
21099;SDS011;10708;50.824;4.408;2022-07-21T10:18:02;19.08;;;11.23;;
21099;SDS011;10708;50.824;4.408;2022-07-21T10:23:14;18.02;;;11.70;;
21099;SDS011;10708;50.824;4.408;2022-07-21T10:28:25;20.67;;;11.73;;
21099;SDS011;10708;50.824;4.408;2022-07-21T10:39:11;19.95;;;12.23;;
21099;SDS011;10708;50.824;4.408;2022-07-21T10:49:49;20.08;;;13.07;;
21099;SDS011;10708;50.824;4.408;2022-07-21T11:00:28;21.80;;;11.98;;
21099;SDS011;10708;50.824;4.408;2022-07-21T11:05:36;20.05;;;11.43;;
21099;SDS011;10708;50.824;4.408;2022-07-21T11:10:39;18.35;;;11.60;;
21099;SDS011;10708;50.824;4.408;2022-07-21T11:15:44;16.80;;;10.13;;
21099;SDS011;10708;50.824;4.408;2022-07-21T11:21:01;13.38;;;10.25;;
21099;SDS011;10708;50.824;4.408;2022-07-21T11:26:12;14.43;;;9.10;;
21099;SDS011;10708;50.824;4.408;2022-07-21T11:31:20;16.70;;;9.32;;
21099;SDS011;10708;50.824;4.408;2022-07-21T11:36:25;19.05;;;9.32;;
21099;SDS011;10708;50.824;4.408;2022-07-21T11:41:29;22.77;;;12.40;;
21099;SDS011;10708;50.824;4.408;2022-07-21T11:51:52;18.75;;;9.38;;
21099;SDS011;10708;50.824;4.408;2022-07-21T11:56:57;16.67;;;9.18;;
21099;SDS011;10708;50.824;4.408;2022-07-21T12:02:05;15.02;;;8.27;;
21099;SDS011;10708;50.824;4.408;2022-07-21T12:07:13;14.70;;;7.68;;
21099;SDS011;10708;50.824;4.408;2022-07-21T12:12:28;11.57;;;7.32;;
21099;SDS011;10708;50.824;4.408;2022-07-21T12:17:34;12.57;;;6.50;;
21099;SDS011;10708;50.824;4.408;2022-07-21T12:22:38;10.95;;;6.57;;
21099;SDS011;10708;50.824;4.408;2022-07-21T12:27:44;14.45;;;6.25;;
21099;SDS011;10708;50.824;4.408;2022-07-21T12:32:48;12.88;;;7.22;;
21099;SDS011;10708;50.824;4.408;2022-07-21T12:37:51;16.42;;;8.18;;
21099;SDS011;10708;50.824;4.408;2022-07-21T12:43:09;17.05;;;7.57;;
21099;SDS011;10708;50.824;4.408;2022-07-21T12:48:16;13.23;;;6.70;;
21099;SDS011;10708;50.824;4.408;2022-07-21T12:53:20;11.48;;;5.95;;
21099;SDS011;10708;50.824;4.408;2022-07-21T12:58:22;10.82;;;7.20;;
21099;SDS011;10708;50.824;4.408;2022-07-21T13:03:28;16.92;;;6.53;;
21099;SDS011;10708;50.824;4.408;2022-07-21T13:08:31;13.18;;;6.03;;
21099;SDS011;10708;50.824;4.408;2022-07-21T13:13:33;15.52;;;6.30;;
21099;SDS011;10708;50.824;4.408;2022-07-21T13:18:38;14.48;;;6.38;;
21099;SDS011;10708;50.824;4.408;2022-07-21T13:23:40;11.18;;;6.28;;
21099;SDS011;10708;50.824;4.408;2022-07-21T13:28:42;13.07;;;6.95;;
21099;SDS011;10708;50.824;4.408;2022-07-21T13:33:45;16.80;;;6.47;;
21099;SDS011;10708;50.824;4.408;2022-07-21T13:38:48;11.52;;;5.43;;
21099;SDS011;10708;50.824;4.408;2022-07-21T13:43:50;13.60;;;5.75;;
21099;SDS011;10708;50.824;4.408;2022-07-21T13:48:54;19.10;;;7.03;;
21099;SDS011;10708;50.824;4.408;2022-07-21T13:53:56;20.23;;;10.85;;
21099;SDS011;10708;50.824;4.408;2022-07-21T13:58:58;14.18;;;6.60;;
21099;SDS011;10708;50.824;4.408;2022-07-21T14:04:02;16.58;;;6.32;;
21099;SDS011;10708;50.824;4.408;2022-07-21T14:09:05;19.90;;;7.32;;
21099;SDS011;10708;50.824;4.408;2022-07-21T14:14:07;21.38;;;6.97;;
21099;SDS011;10708;50.824;4.408;2022-07-21T14:19:11;20.92;;;6.60;;
21099;SDS011;10708;50.824;4.408;2022-07-21T14:24:13;14.52;;;7.50;;
21099;SDS011;10708;50.824;4.408;2022-07-21T14:29:33;17.17;;;6.43;;
21099;SDS011;10708;50.824;4.408;2022-07-21T14:34:36;16.40;;;6.25;;
21099;SDS011;10708;50.824;4.408;2022-07-21T14:39:38;19.80;;;7.05;;
21099;SDS011;10708;50.824;4.408;2022-07-21T14:44:41;13.90;;;6.13;;
21099;SDS011;10708;50.824;4.408;2022-07-21T14:49:45;9.70;;;4.93;;
21099;SDS011;10708;50.824;4.408;2022-07-21T14:54:47;15.63;;;5.75;;
21099;SDS011;10708;50.824;4.408;2022-07-21T14:59:50;16.42;;;6.05;;
21099;SDS011;10708;50.824;4.408;2022-07-21T15:04:53;11.27;;;5.22;;
21099;SDS011;10708;50.824;4.408;2022-07-21T15:09:56;11.48;;;5.28;;
21099;SDS011;10708;50.824;4.408;2022-07-21T15:14:58;11.85;;;4.57;;
21099;SDS011;10708;50.824;4.408;2022-07-21T15:20:02;13.20;;;5.68;;
21099;SDS011;10708;50.824;4.408;2022-07-21T15:25:06;11.52;;;5.10;;
21099;SDS011;10708;50.824;4.408;2022-07-21T15:30:11;10.13;;;4.90;;
21099;SDS011;10708;50.824;4.408;2022-07-21T15:35:16;10.40;;;5.63;;
21099;SDS011;10708;50.824;4.408;2022-07-21T15:40:18;9.05;;;4.88;;
21099;SDS011;10708;50.824;4.408;2022-07-21T15:45:22;12.00;;;4.93;;
21099;SDS011;10708;50.824;4.408;2022-07-21T15:50:26;13.77;;;5.85;;
21099;SDS011;10708;50.824;4.408;2022-07-21T15:55:28;14.07;;;6.53;;
21099;SDS011;10708;50.824;4.408;2022-07-21T16:00:31;17.85;;;7.10;;
21099;SDS011;10708;50.824;4.408;2022-07-21T16:05:35;17.90;;;7.50;;
21099;SDS011;10708;50.824;4.408;2022-07-21T16:10:38;14.20;;;9.38;;
21099;SDS011;10708;50.824;4.408;2022-07-21T16:15:40;18.52;;;7.28;;
21099;SDS011;10708;50.824;4.408;2022-07-21T16:20:44;16.33;;;6.82;;
21099;SDS011;10708;50.824;4.408;2022-07-21T16:25:46;14.82;;;6.40;;
21099;SDS011;10708;50.824;4.408;2022-07-21T16:30:48;14.10;;;5.60;;
21099;SDS011;10708;50.824;4.408;2022-07-21T16:35:52;11.02;;;5.10;;
21099;SDS011;10708;50.824;4.408;2022-07-21T16:40:54;9.82;;;5.03;;
21099;SDS011;10708;50.824;4.408;2022-07-21T16:45:56;11.07;;;4.97;;
21099;SDS011;10708;50.824;4.408;2022-07-21T16:51:00;8.80;;;4.68;;
21099;SDS011;10708;50.824;4.408;2022-07-21T16:56:02;12.20;;;4.80;;
21099;SDS011;10708;50.824;4.408;2022-07-21T17:01:05;14.48;;;5.13;;
21099;SDS011;10708;50.824;4.408;2022-07-21T17:06:09;14.68;;;5.20;;
21099;SDS011;10708;50.824;4.408;2022-07-21T17:11:11;17.20;;;6.68;;
21099;SDS011;10708;50.824;4.408;2022-07-21T17:16:14;14.40;;;6.50;;
21099;SDS011;10708;50.824;4.408;2022-07-21T17:21:17;12.00;;;5.20;;
21099;SDS011;10708;50.824;4.408;2022-07-21T17:26:19;12.52;;;4.68;;
21099;SDS011;10708;50.824;4.408;2022-07-21T17:31:22;11.38;;;4.93;;
21099;SDS011;10708;50.824;4.408;2022-07-21T17:36:25;15.45;;;4.55;;
21099;SDS011;10708;50.824;4.408;2022-07-21T17:41:27;17.13;;;4.88;;
21099;SDS011;10708;50.824;4.408;2022-07-21T17:46:30;10.15;;;4.43;;
21099;SDS011;10708;50.824;4.408;2022-07-21T17:51:33;11.32;;;4.60;;
21099;SDS011;10708;50.824;4.408;2022-07-21T17:56:36;12.60;;;4.03;;
21099;SDS011;10708;50.824;4.408;2022-07-21T18:01:38;12.48;;;4.28;;
21099;SDS011;10708;50.824;4.408;2022-07-21T18:06:42;16.70;;;4.38;;
21099;SDS011;10708;50.824;4.408;2022-07-21T18:11:44;13.13;;;4.55;;
21099;SDS011;10708;50.824;4.408;2022-07-21T18:16:46;13.23;;;4.68;;
21099;SDS011;10708;50.824;4.408;2022-07-21T18:21:50;14.68;;;4.85;;
21099;SDS011;10708;50.824;4.408;2022-07-21T18:26:52;17.05;;;5.57;;
21099;SDS011;10708;50.824;4.408;2022-07-21T18:31:55;18.33;;;5.18;;
21099;SDS011;10708;50.824;4.408;2022-07-21T18:37:00;17.50;;;6.00;;
21099;SDS011;10708;50.824;4.408;2022-07-21T18:42:02;14.82;;;5.68;;
21099;SDS011;10708;50.824;4.408;2022-07-21T18:47:05;11.05;;;5.57;;
21099;SDS011;10708;50.824;4.408;2022-07-21T18:52:09;17.45;;;5.57;;
21099;SDS011;10708;50.824;4.408;2022-07-21T18:57:11;14.63;;;6.18;;
21099;SDS011;10708;50.824;4.408;2022-07-21T19:02:13;10.93;;;5.18;;
21099;SDS011;10708;50.824;4.408;2022-07-21T19:07:17;19.98;;;5.35;;
21099;SDS011;10708;50.824;4.408;2022-07-21T19:12:19;13.77;;;5.63;;
21099;SDS011;10708;50.824;4.408;2022-07-21T19:17:22;11.52;;;4.45;;
21099;SDS011;10708;50.824;4.408;2022-07-21T19:22:25;11.88;;;4.43;;
21099;SDS011;10708;50.824;4.408;2022-07-21T19:27:28;12.43;;;4.97;;
21099;SDS011;10708;50.824;4.408;2022-07-21T19:32:30;11.48;;;3.97;;
21099;SDS011;10708;50.824;4.408;2022-07-21T19:37:34;16.48;;;4.38;;
21099;SDS011;10708;50.824;4.408;2022-07-21T19:42:36;11.75;;;4.63;;
21099;SDS011;10708;50.824;4.408;2022-07-21T19:47:39;12.40;;;4.80;;
21099;SDS011;10708;50.824;4.408;2022-07-21T19:52:43;17.75;;;4.40;;
21099;SDS011;10708;50.824;4.408;2022-07-21T19:57:45;11.48;;;4.10;;
21099;SDS011;10708;50.824;4.408;2022-07-21T20:02:47;13.52;;;3.80;;
21099;SDS011;10708;50.824;4.408;2022-07-21T20:07:51;11.18;;;3.60;;
21099;SDS011;10708;50.824;4.408;2022-07-21T20:12:53;12.27;;;4.15;;
21099;SDS011;10708;50.824;4.408;2022-07-21T20:17:56;11.90;;;3.58;;
21099;SDS011;10708;50.824;4.408;2022-07-21T20:22:59;12.13;;;3.42;;
21099;SDS011;10708;50.824;4.408;2022-07-21T20:28:02;11.98;;;3.95;;
21099;SDS011;10708;50.824;4.408;2022-07-21T20:33:05;14.50;;;4.32;;
21099;SDS011;10708;50.824;4.408;2022-07-21T20:38:08;13.52;;;3.88;;
21099;SDS011;10708;50.824;4.408;2022-07-21T20:43:11;18.38;;;4.05;;
21099;SDS011;10708;50.824;4.408;2022-07-21T20:48:13;13.85;;;3.65;;
21099;SDS011;10708;50.824;4.408;2022-07-21T20:53:16;15.52;;;4.60;;
21099;SDS011;10708;50.824;4.408;2022-07-21T20:58:19;10.25;;;3.65;;
21099;SDS011;10708;50.824;4.408;2022-07-21T21:03:21;11.30;;;3.35;;
21099;SDS011;10708;50.824;4.408;2022-07-21T21:08:25;17.70;;;3.97;;
21099;SDS011;10708;50.824;4.408;2022-07-21T21:13:27;15.20;;;4.20;;
21099;SDS011;10708;50.824;4.408;2022-07-21T21:18:30;23.77;;;8.15;;
21099;SDS011;10708;50.824;4.408;2022-07-21T21:23:33;13.85;;;5.00;;
21099;SDS011;10708;50.824;4.408;2022-07-21T21:28:35;12.45;;;3.63;;
21099;SDS011;10708;50.824;4.408;2022-07-21T21:33:38;13.45;;;3.95;;
21099;SDS011;10708;50.824;4.408;2022-07-21T21:38:41;13.63;;;4.00;;
21099;SDS011;10708;50.824;4.408;2022-07-21T21:43:43;14.55;;;4.18;;
21099;SDS011;10708;50.824;4.408;2022-07-21T21:48:46;18.65;;;4.60;;
21099;SDS011;10708;50.824;4.408;2022-07-21T21:53:49;9.88;;;3.75;;
21099;SDS011;10708;50.824;4.408;2022-07-21T21:58:52;17.38;;;3.53;;
21099;SDS011;10708;50.824;4.408;2022-07-21T22:03:54;13.98;;;3.50;;
21099;SDS011;10708;50.824;4.408;2022-07-21T22:08:57;14.75;;;3.28;;
21099;SDS011;10708;50.824;4.408;2022-07-21T22:13:59;10.43;;;3.17;;
21099;SDS011;10708;50.824;4.408;2022-07-21T22:19:02;12.60;;;2.90;;
21099;SDS011;10708;50.824;4.408;2022-07-21T22:24:06;16.00;;;3.75;;
21099;SDS011;10708;50.824;4.408;2022-07-21T22:29:09;13.10;;;3.45;;
21099;SDS011;10708;50.824;4.408;2022-07-21T22:34:11;14.32;;;3.53;;
21099;SDS011;10708;50.824;4.408;2022-07-21T22:39:15;12.27;;;3.50;;
21099;SDS011;10708;50.824;4.408;2022-07-21T22:44:17;12.43;;;3.15;;
21099;SDS011;10708;50.824;4.408;2022-07-21T22:49:19;7.40;;;3.40;;
21099;SDS011;10708;50.824;4.408;2022-07-21T22:54:22;11.05;;;3.88;;
21099;SDS011;10708;50.824;4.408;2022-07-21T22:59:24;10.45;;;3.22;;
21099;SDS011;10708;50.824;4.408;2022-07-21T23:04:27;11.93;;;2.88;;
21099;SDS011;10708;50.824;4.408;2022-07-21T23:09:30;9.23;;;2.72;;
21099;SDS011;10708;50.824;4.408;2022-07-21T23:14:32;14.63;;;3.25;;
21099;SDS011;10708;50.824;4.408;2022-07-21T23:19:35;9.30;;;3.25;;
21099;SDS011;10708;50.824;4.408;2022-07-21T23:24:38;9.52;;;3.28;;
21099;SDS011;10708;50.824;4.408;2022-07-21T23:29:40;14.73;;;3.40;;
21099;SDS011;10708;50.824;4.408;2022-07-21T23:34:42;11.25;;;2.92;;
21099;SDS011;10708;50.824;4.408;2022-07-21T23:39:46;10.25;;;3.33;;
21099;SDS011;10708;50.824;4.408;2022-07-21T23:44:48;14.68;;;3.42;;
21099;SDS011;10708;50.824;4.408;2022-07-21T23:49:50;16.23;;;4.22;;
21099;SDS011;10708;50.824;4.408;2022-07-21T23:54:54;18.15;;;4.22;;
21099;SDS011;10708;50.824;4.408;2022-07-21T23:59:56;16.33;;;3.78;;
